Time;durP1;ratioP1;P1;durP2;ratioP2;P2;SDS_P1;SDS_P2;PMS_P1;PMS_P2;Temp;Humidity;BMP_temperature;BMP_pressure;BME280_temperature;BME280_humidity;BME280_pressure;Samples;Min_cycle;Max_cycle;Signal;HPM_P1;HPM_P2
2021/11/04 15:23:38;;;;;;;;;;;10.20;99.90;;;;;;5069981;28;19917;-95
2021/11/04 15:26:05;;;;;;;;;;;10.10;99.90;;;;;;5032055;28;19992;-96
2021/11/04 15:28:32;;;;;;;;;;;10.20;99.90;;;;;;5035783;28;19967;-96
2021/11/04 15:30:59;;;;;;;;;;;10.30;99.90;;;;;;5026652;28;19952;-96
2021/11/04 15:33:24;;;;;;;;;;;10.40;99.90;;;;;;5031227;28;19996;-94
2021/11/04 15:35:50;;;;;;;;;;;10.50;99.90;;;;;;5029512;28;20338;-91
2021/11/04 15:38:15;;;;;;;;;;;10.60;99.90;;;;;;5029426;28;20297;-92
2021/11/04 15:40:41;;;;;;;;;;;10.70;99.90;;;;;;5029847;28;19960;-91
2021/11/04 15:43:07;;;;;;;;;;;10.80;99.90;;;;;;5029104;28;20350;-92
2021/11/04 15:45:32;;;;;;;;;;;10.80;99.90;;;;;;5028548;28;19929;-92
2021/11/04 15:47:58;;;;;;;;;;;10.90;99.90;;;;;;5029361;28;20458;-92
2021/11/04 15:50:24;;;;;;;;;;;10.90;99.90;;;;;;5029559;28;19920;-93
2021/11/04 15:52:49;;;;;;;;;;;10.90;99.90;;;;;;5029102;28;19932;-92
2021/11/04 15:55:15;;;;;;;;;;;11.00;99.90;;;;;;5028929;28;19921;-93
2021/11/04 15:57:40;;;;;;;;;;;11.00;99.90;;;;;;5029303;28;20305;-93
2021/11/04 16:00:06;;;;;;;;;;;11.00;99.90;;;;;;5029684;28;20010;-93
2021/11/04 16:02:32;;;;;;;;;;;11.10;99.90;;;;;;5031130;28;19913;-94
2021/11/04 16:04:58;;;;;;;;;;;11.10;99.90;;;;;;5045984;28;19916;-93
2021/11/04 16:07:23;;;;;;;;;;;11.10;99.90;;;;;;5030173;28;20389;-96
2021/11/04 16:09:49;;;;;;;;;;;11.10;99.90;;;;;;5030047;28;19964;-94
2021/11/04 16:12:15;;;;;;;;;;;11.20;99.90;;;;;;5029789;28;19913;-93
2021/11/04 16:14:41;;;;;;;;;;;11.20;99.90;;;;;;5029294;28;19956;-94
2021/11/04 16:17:06;;;;;;;;;;;11.20;99.90;;;;;;5034948;28;19952;-93
2021/11/04 16:19:32;;;;;;;;;;;11.10;99.90;;;;;;5030744;28;19993;-94
2021/11/04 16:21:57;;;;;;;;;;;11.20;99.90;;;;;;5035844;28;19925;-95
2021/11/04 16:24:23;;;;;;;;;;;11.10;99.90;;;;;;5049020;28;19910;-93
2021/11/04 16:40:54;;;;;;;;;;;10.70;99.90;;;;;;5112492;27;19918;-94
2021/11/04 16:43:20;;;;;;;;;;;10.60;99.90;;;;;;5111313;28;20350;-93
2021/11/04 16:45:46;;;;;;;;;;;10.50;99.90;;;;;;5110623;28;19967;-93
2021/11/04 16:48:12;;;;;;;;;;;10.60;99.90;;;;;;5110704;28;19933;-91
2021/11/04 16:50:38;;;;;;;;;;;10.60;99.90;;;;;;5110646;28;19994;-91
2021/11/04 16:53:04;;;;;;;;;;;10.60;99.90;;;;;;5097602;28;20377;-91
2021/11/04 16:55:30;;;;;;;;;;;10.70;99.90;;;;;;5090046;28;19908;-90
2021/11/04 16:57:56;;;;;;;;;;;10.70;99.90;;;;;;5091488;28;19999;-91
2021/11/04 17:00:22;;;;;;;;;;;10.70;99.90;;;;;;5100371;28;20362;-91
2021/11/04 19:10:28;;;;;;;;;;;9.90;99.90;;;;;;5113586;27;19912;-94
2021/11/04 19:12:54;;;;;;;;;;;9.90;99.90;;;;;;5145331;27;19999;-93
2021/11/04 19:15:25;;;;;;;;;;;10.00;99.90;;;;;;5145065;27;19937;-91
2021/11/04 19:17:50;;;;;;;;;;;10.10;99.90;;;;;;5145006;27;19961;-90
2021/11/04 19:20:16;;;;;;;;;;;10.20;99.90;;;;;;5144977;27;19908;-90
2021/11/04 19:22:41;;;;;;;;;;;10.40;99.90;;;;;;5112176;28;19908;-90
2021/11/04 19:25:07;;;;;;;;;;;10.50;99.90;;;;;;5110518;28;19908;-91
2021/11/04 19:27:33;;;;;;;;;;;10.60;99.90;;;;;;5110562;28;19977;-91
2021/11/04 20:00:42;;;;;;;;;;;10.60;99.90;;;;;;5112952;27;19912;-92
2021/11/04 20:03:08;;;;;;;;;;;10.60;99.90;;;;;;5145158;27;19912;-90
2021/11/04 20:05:34;;;;;;;;;;;10.60;99.90;;;;;;5110730;28;19958;-91
2021/11/04 20:07:59;;;;;;;;;;;10.70;99.90;;;;;;5110687;28;19912;-91
2021/11/04 20:10:25;;;;;;;;;;;10.80;99.90;;;;;;5111448;28;19915;-92
2021/11/04 20:12:51;;;;;;;;;;;10.90;99.90;;;;;;5109073;28;20272;-92
